Aviation Digital Data Service (ADDS)

Output produced by METARs form (1100 UTC 24 November 2017)
found at http://www.aviationweather.gov/adds/metars/
 
KDEN 240847Z 2409/2512 25010KT P6SM SCT250 
     FM241500 19008KT P6SM FEW140 SCT250 
     FM241900 34010G18KT P6SM SCT140 BKN220 
     FM242100 30015G28KT P6SM SCT080 BKN120 
     FM250100 30012KT P6SM SCT120 BKN200 
     FM250600 21010KT P6SM FEW140 SCT220